createdAt,value
2022-12-23T00:01:40.814Z,80.24
2022-12-23T00:04:10.799Z,80.24
2022-12-23T00:06:39.179Z,80.28
2022-12-23T00:09:09.001Z,80.29
2022-12-23T00:11:38.849Z,80.29
2022-12-23T00:14:25.213Z,80.29
2022-12-23T00:16:53.332Z,80.24
2022-12-23T00:19:21.570Z,80.20
2022-12-23T00:21:49.915Z,80.28
2022-12-23T00:24:17.885Z,80.31
2022-12-23T00:26:45.736Z,80.31
2022-12-23T00:29:13.740Z,80.31
2022-12-23T00:31:41.824Z,80.34
2022-12-23T00:34:12.043Z,80.45
2022-12-23T00:36:41.522Z,80.47
2022-12-23T00:39:33.771Z,80.47
2022-12-23T00:42:19.439Z,80.58
2022-12-23T00:44:49.642Z,80.64
2022-12-23T00:47:39.161Z,80.66
2022-12-23T00:50:08.581Z,80.65
2022-12-23T00:52:36.337Z,80.77
2022-12-23T00:55:05.150Z,80.77
2022-12-23T00:57:33.083Z,80.77
2022-12-23T01:00:00.847Z,80.79
2022-12-23T01:02:47.132Z,80.81
2022-12-23T01:05:33.886Z,80.82
2022-12-23T01:08:01.704Z,80.83
2022-12-23T01:10:29.617Z,80.83
2022-12-23T01:12:57.429Z,80.89
2022-12-23T01:15:25.161Z,80.86
2022-12-23T01:17:52.970Z,80.85
2022-12-23T01:20:20.733Z,80.88
2022-12-23T01:22:49.088Z,80.93
2022-12-23T01:25:17.553Z,80.93
2022-12-23T01:27:45.411Z,80.94
2022-12-23T01:30:14.041Z,80.95
2022-12-23T01:32:41.810Z,80.98
2022-12-23T01:35:09.572Z,81.03
2022-12-23T01:37:37.526Z,81.08
2022-12-23T01:40:07.241Z,81.10
2022-12-23T01:42:43.902Z,81.07
2022-12-23T01:45:22.764Z,81.07
2022-12-23T01:48:10.229Z,81.17
2022-12-23T01:50:45.720Z,81.14
2022-12-23T01:53:22.291Z,81.33
2022-12-23T01:55:58.750Z,81.33
2022-12-23T01:58:48.396Z,81.52
2022-12-23T02:01:34.899Z,81.53
2022-12-23T02:04:12.346Z,81.57
2022-12-23T02:07:01.999Z,81.69
2022-12-23T02:09:34.282Z,81.70
2022-12-23T02:12:45.980Z,81.80
2022-12-23T02:15:59.015Z,81.82
2022-12-23T02:18:48.566Z,81.95
2022-12-23T02:21:41.862Z,81.98
2022-12-23T02:24:30.396Z,81.93
2022-12-23T02:27:03.567Z,82.12
2022-12-23T02:30:01.011Z,82.16
2022-12-23T02:32:55.752Z,82.19
2022-12-23T02:35:49.288Z,82.31
2022-12-23T02:38:48.544Z,82.39
2022-12-23T02:41:35.980Z,82.43
2022-12-23T02:44:46.152Z,82.46
2022-12-23T02:47:37.285Z,82.44
2022-12-23T02:50:15.942Z,82.56
2022-12-23T02:52:46.707Z,82.63
2022-12-23T02:55:22.313Z,82.69
2022-12-23T02:57:54.554Z,82.71
2022-12-23T03:00:22.891Z,82.77
2022-12-23T03:02:51.071Z,82.78
2022-12-23T03:05:33.175Z,82.85
2022-12-23T03:08:07.063Z,82.83
2022-12-23T03:10:57.080Z,82.80
2022-12-23T03:13:49.743Z,82.86
2022-12-23T03:16:24.846Z,83.04
2022-12-23T03:19:07.207Z,83.07
2022-12-23T03:21:54.440Z,83.06
2022-12-23T03:25:11.109Z,83.17
2022-12-23T03:27:47.221Z,83.19
2022-12-23T03:30:18.418Z,83.24
2022-12-23T03:33:06.886Z,83.35
2022-12-23T03:35:39.698Z,83.47
2022-12-23T03:38:10.145Z,83.72
2022-12-23T03:40:41.616Z,83.54
2022-12-23T03:43:17.928Z,83.52
2022-12-23T03:45:50.643Z,83.55
2022-12-23T03:48:35.559Z,83.63
2022-12-23T03:51:14.532Z,83.60
2022-12-23T03:53:53.345Z,83.68
2022-12-23T03:56:32.203Z,83.77
2022-12-23T03:59:08.290Z,83.78
2022-12-23T04:02:10.685Z,83.89
2022-12-23T04:05:19.658Z,83.94
2022-12-23T04:07:58.011Z,83.96
2022-12-23T04:10:27.068Z,84.03
2022-12-23T04:12:55.120Z,84.11
2022-12-23T04:15:25.551Z,84.09
2022-12-23T04:17:58.049Z,84.13
2022-12-23T04:20:25.764Z,84.13
2022-12-23T04:22:53.505Z,84.19
2022-12-23T04:25:21.051Z,84.29
2022-12-23T04:27:48.961Z,84.30
2022-12-23T04:30:18.202Z,84.27
2022-12-23T04:32:46.041Z,84.33
2022-12-23T04:35:13.900Z,84.38
2022-12-23T04:37:41.829Z,84.37
2022-12-23T04:40:09.948Z,84.41
2022-12-23T04:42:37.678Z,84.38
2022-12-23T04:45:06.507Z,84.30
2022-12-23T04:47:35.145Z,84.29
2022-12-23T04:50:04.055Z,84.37
2022-12-23T04:52:31.675Z,84.38
2022-12-23T04:54:59.297Z,84.35
2022-12-23T04:57:27.247Z,84.31
2022-12-23T04:59:55.196Z,84.37
2022-12-23T05:02:23.301Z,84.44
2022-12-23T05:04:51.196Z,84.49
2022-12-23T05:07:19.037Z,84.47
2022-12-23T05:09:46.641Z,84.50
2022-12-23T05:12:14.536Z,84.52
2022-12-23T05:14:42.229Z,84.57
2022-12-23T05:17:10.150Z,84.57
2022-12-23T05:19:37.757Z,84.57
2022-12-23T05:22:05.441Z,84.59
2022-12-23T05:24:33.252Z,84.61
2022-12-23T05:27:00.972Z,84.63
2022-12-23T05:29:29.175Z,84.74
2022-12-23T05:31:56.994Z,84.74
2022-12-23T05:34:24.796Z,84.75
2022-12-23T05:36:52.535Z,84.80
2022-12-23T05:39:20.532Z,84.78
2022-12-23T05:41:48.397Z,84.83
2022-12-23T05:44:15.967Z,84.91
2022-12-23T05:46:43.920Z,84.95
2022-12-23T05:49:11.759Z,84.95
2022-12-23T05:51:39.661Z,84.95
2022-12-23T05:54:07.368Z,85.01
2022-12-23T05:56:35.299Z,85.10
2022-12-23T05:59:04.034Z,85.10
2022-12-23T06:01:32.477Z,85.09
2022-12-23T06:04:00.247Z,85.10
2022-12-23T06:06:30.003Z,85.14
2022-12-23T06:09:00.076Z,85.14
2022-12-23T06:11:27.436Z,85.15
2022-12-23T06:13:55.021Z,85.12
2022-12-23T06:16:22.936Z,85.07
2022-12-23T06:18:57.837Z,85.01
2022-12-23T06:21:25.558Z,85.03
2022-12-23T06:23:53.066Z,85.00
2022-12-23T06:26:21.271Z,84.90
2022-12-23T06:28:49.397Z,84.96
2022-12-23T06:31:18.880Z,84.93
2022-12-23T06:33:49.651Z,84.94
2022-12-23T06:36:18.435Z,84.97
2022-12-23T06:38:46.112Z,85.09
2022-12-23T06:41:15.649Z,85.17
2022-12-23T06:43:43.507Z,85.29
2022-12-23T06:46:11.902Z,85.35
2022-12-23T06:48:40.194Z,85.41
2022-12-23T06:51:10.695Z,85.46
2022-12-23T06:53:39.138Z,85.54
2022-12-23T06:56:07.290Z,85.58
2022-12-23T06:58:35.064Z,85.65
2022-12-23T07:01:05.859Z,85.69
2022-12-23T07:03:33.864Z,85.71
2022-12-23T07:06:01.955Z,85.67
2022-12-23T07:08:29.702Z,85.72
2022-12-23T07:10:59.729Z,85.73
2022-12-23T07:13:27.511Z,85.67
2022-12-23T07:15:55.181Z,85.69
2022-12-23T07:18:23.595Z,85.74
2022-12-23T07:20:52.219Z,85.78
2022-12-23T07:23:19.884Z,85.70
2022-12-23T07:25:47.447Z,85.62
2022-12-23T07:28:15.149Z,85.71
2022-12-23T07:30:42.856Z,85.80
2022-12-23T07:33:10.778Z,85.92
2022-12-23T07:35:38.330Z,85.96
2022-12-23T07:38:05.968Z,85.99
2022-12-23T07:40:33.455Z,85.75
2022-12-23T07:43:01.624Z,85.78
2022-12-23T07:45:31.786Z,85.87
2022-12-23T07:48:01.756Z,85.86
2022-12-23T07:50:29.506Z,85.84
2022-12-23T07:52:57.504Z,85.94
2022-12-23T07:55:25.277Z,86.03
2022-12-23T07:57:53.164Z,86.08
2022-12-23T08:00:21.786Z,86.14
2022-12-23T08:02:49.575Z,85.99
2022-12-23T08:05:18.339Z,85.94
2022-12-23T08:07:48.305Z,86.01
2022-12-23T08:10:16.235Z,86.01
2022-12-23T08:12:46.102Z,86.19
2022-12-23T08:15:13.974Z,86.13
2022-12-23T08:17:41.526Z,86.19
2022-12-23T08:20:09.833Z,86.34
2022-12-23T08:22:37.671Z,86.31
2022-12-23T08:25:06.234Z,86.19
2022-12-23T08:27:37.281Z,86.23
2022-12-23T08:30:06.505Z,86.31
2022-12-23T08:32:34.163Z,86.33
2022-12-23T08:35:02.886Z,86.46
2022-12-23T08:37:30.915Z,86.68
2022-12-23T08:39:58.944Z,86.54
2022-12-23T08:42:29.769Z,86.35
2022-12-23T08:44:58.639Z,86.46
2022-12-23T08:47:26.163Z,86.47
2022-12-23T08:49:55.443Z,86.63
2022-12-23T08:52:23.200Z,86.62
2022-12-23T08:54:50.967Z,86.66
2022-12-23T08:57:18.468Z,86.60
2022-12-23T08:59:49.316Z,86.62
2022-12-23T09:02:18.438Z,86.59
2022-12-23T09:04:46.329Z,86.61
2022-12-23T09:07:13.938Z,86.69
2022-12-23T09:09:41.780Z,86.73
2022-12-23T09:12:11.420Z,86.92
2022-12-23T09:14:39.668Z,86.91
2022-12-23T09:17:07.469Z,86.87
2022-12-23T09:19:35.166Z,86.84
2022-12-23T09:22:02.781Z,86.66
2022-12-23T09:24:32.308Z,86.22
2022-12-23T09:27:00.113Z,85.71
2022-12-23T09:29:27.843Z,85.83
2022-12-23T09:31:55.479Z,86.16
2022-12-23T09:34:26.431Z,86.25
2022-12-23T09:36:55.633Z,86.08
2022-12-23T09:39:23.883Z,85.79
2022-12-23T09:42:02.931Z,85.95
2022-12-23T09:45:00.651Z,85.99
2022-12-23T09:47:31.364Z,85.95
2022-12-23T09:50:16.461Z,85.92
2022-12-23T09:53:07.094Z,85.63
2022-12-23T09:55:46.089Z,85.52
2022-12-23T09:58:37.321Z,85.35
2022-12-23T10:01:44.823Z,85.16
2022-12-23T10:04:38.541Z,85.01
2022-12-23T10:07:23.639Z,84.87
2022-12-23T10:09:54.682Z,84.67
2022-12-23T10:12:40.316Z,84.68
2022-12-23T10:15:19.504Z,84.39
2022-12-23T10:17:51.605Z,84.29
2022-12-23T10:20:31.007Z,84.29
2022-12-23T10:23:00.331Z,84.09
2022-12-23T10:25:39.148Z,83.62
2022-12-23T10:28:09.840Z,83.69
2022-12-23T10:33:19.275Z,83.76
2022-12-23T10:36:05.311Z,83.62
2022-12-23T10:39:16.501Z,83.56
2022-12-23T10:42:24.840Z,83.68
2022-12-23T10:45:23.286Z,83.70
2022-12-23T10:48:21.129Z,83.52
2022-12-23T10:51:03.153Z,83.33
2022-12-23T10:54:06.997Z,83.23
2022-12-23T10:56:34.557Z,83.22
2022-12-23T10:59:02.224Z,83.21
2022-12-23T11:01:33.063Z,83.17
2022-12-23T11:04:14.249Z,83.13
2022-12-23T11:06:46.754Z,82.98
2022-12-23T11:09:22.765Z,82.83
2022-12-23T11:12:02.569Z,82.92
2022-12-23T11:14:44.523Z,82.73
2022-12-23T11:17:29.129Z,82.74
2022-12-23T11:20:13.685Z,82.73
2022-12-23T11:22:51.869Z,82.71
2022-12-23T11:25:42.303Z,82.63
2022-12-23T11:28:21.433Z,82.66
2022-12-23T11:30:56.553Z,82.73
2022-12-23T11:33:37.856Z,82.70
2022-12-23T11:36:17.378Z,82.78
2022-12-23T11:39:08.697Z,82.89
2022-12-23T11:41:47.625Z,82.90
2022-12-23T11:44:35.570Z,82.84
2022-12-23T11:47:25.532Z,82.78
2022-12-23T11:50:02.671Z,82.81
2022-12-23T11:52:33.456Z,82.74
2022-12-23T11:55:04.136Z,82.67
2022-12-23T11:57:47.930Z,82.59
2022-12-23T12:00:28.419Z,82.57
2022-12-23T12:03:03.663Z,82.54
2022-12-23T12:05:48.048Z,82.35
2022-12-23T12:08:23.203Z,82.41
2022-12-23T12:10:53.513Z,82.64
2022-12-23T12:13:40.952Z,82.69
2022-12-23T12:16:54.294Z,82.61
2022-12-23T12:19:35.035Z,82.59
2022-12-23T12:22:11.104Z,82.59
2022-12-23T12:24:50.089Z,82.56
2022-12-23T12:27:19.796Z,82.53
2022-12-23T12:30:07.695Z,82.15
2022-12-23T12:32:49.145Z,82.04
2022-12-23T12:35:43.542Z,82.16
2022-12-23T12:38:29.732Z,82.33
2022-12-23T12:41:17.816Z,82.50
2022-12-23T12:43:56.795Z,82.80
2022-12-23T12:46:33.451Z,83.11
2022-12-23T12:49:26.875Z,83.32
2022-12-23T12:52:13.694Z,83.51
2022-12-23T12:55:08.120Z,83.83
2022-12-23T12:57:36.531Z,83.75
2022-12-23T13:00:07.129Z,83.93
2022-12-23T13:03:21.741Z,83.98
2022-12-23T13:06:16.410Z,84.13
2022-12-23T13:09:01.727Z,84.08
2022-12-23T13:11:44.654Z,84.17
2022-12-23T13:14:43.433Z,84.11
2022-12-23T13:17:25.490Z,84.13
2022-12-23T13:20:24.368Z,84.14
2022-12-23T13:23:06.339Z,84.26
2022-12-23T13:25:32.684Z,84.31
2022-12-23T13:28:17.830Z,84.23
2022-12-23T13:31:16.578Z,84.69
2022-12-23T13:34:04.856Z,84.64
2022-12-23T13:36:50.418Z,84.81
2022-12-23T13:39:38.480Z,85.03
2022-12-23T13:42:11.433Z,85.03
2022-12-23T13:44:39.479Z,85.15
2022-12-23T13:47:30.326Z,85.13
2022-12-23T13:50:15.709Z,85.21
2022-12-23T13:53:20.021Z,85.27
2022-12-23T13:56:11.060Z,85.44
2022-12-23T13:58:40.507Z,85.70
2022-12-23T14:01:13.683Z,85.86
2022-12-23T14:03:41.667Z,85.81
2022-12-23T14:06:36.281Z,85.86
2022-12-23T14:09:04.747Z,85.90
2022-12-23T14:11:33.968Z,85.97
2022-12-23T14:14:07.885Z,86.02
2022-12-23T14:17:04.963Z,86.04
2022-12-23T14:19:47.151Z,86.05
2022-12-23T14:22:52.249Z,86.21
2022-12-23T14:25:57.911Z,86.30
2022-12-23T14:28:47.518Z,86.40
2022-12-23T14:31:32.802Z,86.46
2022-12-23T14:34:08.058Z,86.43
2022-12-23T14:36:35.870Z,86.51
2022-12-23T14:39:17.970Z,86.52
2022-12-23T14:41:52.178Z,86.64
2022-12-23T14:44:43.160Z,86.72
2022-12-23T14:47:36.073Z,86.80
2022-12-23T14:50:34.034Z,86.78
2022-12-23T14:53:26.193Z,86.73
2022-12-23T14:56:38.580Z,86.81
2022-12-23T14:59:47.718Z,86.80
2022-12-23T15:02:37.241Z,86.88
2022-12-23T15:05:05.908Z,86.97
2022-12-23T15:07:38.112Z,86.96
2022-12-23T15:10:16.153Z,86.95
2022-12-23T15:12:57.099Z,86.95
2022-12-23T15:15:28.134Z,86.96
2022-12-23T15:18:12.004Z,86.93
2022-12-23T15:20:40.388Z,86.99
2022-12-23T15:23:14.817Z,87.02
2022-12-23T15:25:48.454Z,87.03
2022-12-23T15:28:30.465Z,87.04
2022-12-23T15:30:58.155Z,87.08
2022-12-23T15:36:04.010Z,87.28
2022-12-23T15:38:35.858Z,87.30
2022-12-23T15:41:14.752Z,87.26
2022-12-23T15:43:43.999Z,87.30
2022-12-23T15:46:28.530Z,87.30
2022-12-23T15:48:51.241Z,87.33
2022-12-23T15:54:08.282Z,87.41
2022-12-23T15:56:39.720Z,87.47
2022-12-23T15:59:12.716Z,87.51
2022-12-23T16:01:41.580Z,87.55
2022-12-23T16:04:15.084Z,87.68
2022-12-23T16:06:51.254Z,87.70
2022-12-23T16:09:24.803Z,87.72
2022-12-23T16:12:06.477Z,87.76
2022-12-23T16:14:38.853Z,87.79
2022-12-23T16:17:13.459Z,87.90
2022-12-23T16:19:55.588Z,87.95
2022-12-23T16:22:30.361Z,88.00
2022-12-23T16:25:21.937Z,88.14
2022-12-23T16:27:57.598Z,88.24
2022-12-23T16:30:35.316Z,88.35
2022-12-23T16:33:08.249Z,88.57
2022-12-23T16:35:42.697Z,88.60
2022-12-23T16:38:21.355Z,88.66
2022-12-23T16:40:54.851Z,88.70
2022-12-23T16:43:24.737Z,88.75
2022-12-23T16:45:55.815Z,88.76
2022-12-23T16:48:30.829Z,88.78
2022-12-23T16:50:59.853Z,88.73
2022-12-23T16:53:27.937Z,88.86
2022-12-23T16:56:00.528Z,88.96
2022-12-23T16:58:25.252Z,89.12
2022-12-23T17:00:53.256Z,89.08
2022-12-23T17:03:21.290Z,88.97
2022-12-23T17:05:49.076Z,89.01
2022-12-23T17:08:17.154Z,88.96
2022-12-23T17:10:45.405Z,88.93
2022-12-23T17:13:17.105Z,88.96
2022-12-23T17:15:45.317Z,88.93
2022-12-23T17:18:16.827Z,89.08
2022-12-23T17:20:46.289Z,89.12
2022-12-23T17:23:32.027Z,89.11
2022-12-23T17:25:59.548Z,89.12
2022-12-23T17:28:31.605Z,89.33
2022-12-23T17:31:00.733Z,89.22
2022-12-23T17:33:31.336Z,89.14
2022-12-23T17:36:00.093Z,89.12
2022-12-23T17:38:30.870Z,89.08
2022-12-23T17:40:58.771Z,89.12
2022-12-23T17:43:26.659Z,89.04
2022-12-23T17:45:54.461Z,89.02
2022-12-23T17:48:28.009Z,89.01
2022-12-23T17:50:51.779Z,89.00
2022-12-23T17:53:19.885Z,89.00
2022-12-23T17:55:47.517Z,89.03
2022-12-23T17:58:16.248Z,89.03
2022-12-23T18:00:43.912Z,89.05
2022-12-23T18:03:22.282Z,89.04
2022-12-23T18:05:52.973Z,89.05
2022-12-23T18:08:19.745Z,89.10
2022-12-23T18:10:47.588Z,89.06
2022-12-23T18:13:18.645Z,89.08
2022-12-23T18:15:47.346Z,89.13
2022-12-23T18:18:26.455Z,89.13
2022-12-23T18:20:52.373Z,89.04
2022-12-23T18:23:27.634Z,88.91
2022-12-23T18:25:56.955Z,88.89
2022-12-23T18:28:26.081Z,89.00
2022-12-23T18:30:57.072Z,89.17
2022-12-23T18:33:26.712Z,89.51
2022-12-23T18:35:54.573Z,89.68
2022-12-23T18:38:22.508Z,89.75
2022-12-23T18:40:52.097Z,89.92
2022-12-23T18:43:23.250Z,89.91
2022-12-23T18:45:53.526Z,90.00
2022-12-23T18:48:21.994Z,90.07
2022-12-23T18:50:49.559Z,90.10
2022-12-23T18:53:25.168Z,90.01
2022-12-23T18:55:54.422Z,90.05
2022-12-23T18:58:22.889Z,90.17
2022-12-23T19:00:54.854Z,90.09
2022-12-23T19:03:29.633Z,90.18
2022-12-23T19:06:03.774Z,90.21
2022-12-23T19:08:31.592Z,90.25
2022-12-23T19:11:00.388Z,90.25
2022-12-23T19:13:28.208Z,90.30
2022-12-23T19:15:56.241Z,90.36
2022-12-23T19:18:24.656Z,90.42
2022-12-23T19:20:52.323Z,90.44
2022-12-23T19:23:19.941Z,90.37
2022-12-23T19:25:54.828Z,90.50
2022-12-23T19:28:17.328Z,90.46
2022-12-23T19:30:45.321Z,90.46
2022-12-23T19:33:13.099Z,90.50
2022-12-23T19:35:42.191Z,90.66
2022-12-23T19:38:10.343Z,90.70
2022-12-23T19:40:38.201Z,90.83
2022-12-23T19:43:06.290Z,90.83
2022-12-23T19:45:34.138Z,90.86
2022-12-23T19:48:01.912Z,90.91
2022-12-23T19:50:30.000Z,90.93
2022-12-23T19:53:01.761Z,91.10
2022-12-23T19:55:31.854Z,91.17
2022-12-23T19:57:59.507Z,91.20
2022-12-23T20:00:27.261Z,91.30
2022-12-23T20:02:58.859Z,91.30
2022-12-23T20:05:26.724Z,91.28
2022-12-23T20:07:56.160Z,91.28
2022-12-23T20:10:23.917Z,91.25
2022-12-23T20:12:51.494Z,91.25
2022-12-23T20:15:19.369Z,91.25
2022-12-23T20:17:47.443Z,91.24
2022-12-23T20:20:15.686Z,91.26
2022-12-23T20:22:43.588Z,91.32
2022-12-23T20:25:11.624Z,91.42
2022-12-23T20:27:42.053Z,91.56
2022-12-23T20:30:11.153Z,91.68
2022-12-23T20:32:40.070Z,91.74
2022-12-23T20:35:11.496Z,91.71
2022-12-23T20:37:39.187Z,91.78
2022-12-23T20:40:08.965Z,91.75
2022-12-23T20:42:37.240Z,91.78
2022-12-23T20:45:06.241Z,91.78
2022-12-23T20:47:35.925Z,91.78
2022-12-23T20:50:04.255Z,91.88
2022-12-23T20:52:32.483Z,91.98
2022-12-23T20:55:01.149Z,92.06
2022-12-23T20:57:28.973Z,92.12
2022-12-23T20:59:57.083Z,92.19
2022-12-23T21:02:27.860Z,92.32
2022-12-23T21:04:55.523Z,92.29
2022-12-23T21:07:26.412Z,92.34
2022-12-23T21:09:54.349Z,92.42
2022-12-23T21:12:22.699Z,92.36
2022-12-23T21:14:51.309Z,92.36
2022-12-23T21:17:20.644Z,92.33
2022-12-23T21:19:51.391Z,92.41
2022-12-23T21:22:19.650Z,92.35
2022-12-23T21:24:47.523Z,92.34
2022-12-23T21:27:16.868Z,92.25
2022-12-23T21:29:44.786Z,92.28
2022-12-23T21:32:12.650Z,92.18
2022-12-23T21:34:42.504Z,92.17
2022-12-23T21:37:10.530Z,92.01
2022-12-23T21:39:38.236Z,91.89
2022-12-23T21:42:06.442Z,92.32
2022-12-23T21:44:34.169Z,92.29
2022-12-23T21:47:02.335Z,92.36
2022-12-23T21:49:30.451Z,92.47
2022-12-23T21:51:58.389Z,92.57
2022-12-23T21:54:26.244Z,92.55
2022-12-23T21:56:55.268Z,92.55
2022-12-23T21:59:23.205Z,92.58
2022-12-23T22:01:51.664Z,92.69
2022-12-23T22:04:22.109Z,92.76
2022-12-23T22:06:50.094Z,92.74
2022-12-23T22:09:19.824Z,92.78
2022-12-23T22:11:48.160Z,92.77
2022-12-23T22:14:19.052Z,92.81
2022-12-23T22:16:47.715Z,92.94
2022-12-23T22:19:15.968Z,92.92
2022-12-23T22:21:44.954Z,92.92
2022-12-23T22:24:13.265Z,92.91
2022-12-23T22:26:42.552Z,92.94
2022-12-23T22:29:11.390Z,92.96
2022-12-23T22:31:49.503Z,92.98
2022-12-23T22:34:22.608Z,93.00
2022-12-23T22:36:50.763Z,92.96
2022-12-23T22:39:22.014Z,92.99
2022-12-23T22:41:52.092Z,92.93
2022-12-23T22:44:20.909Z,92.92
2022-12-23T22:46:49.436Z,92.81
2022-12-23T22:49:17.753Z,92.74
2022-12-23T22:51:45.629Z,92.70
2022-12-23T22:54:13.950Z,92.61
2022-12-23T22:56:42.269Z,92.52
2022-12-23T22:59:21.497Z,92.45
2022-12-23T23:01:50.989Z,92.53
2022-12-23T23:04:18.932Z,92.58
2022-12-23T23:06:49.222Z,92.56
2022-12-23T23:09:19.706Z,92.50
2022-12-23T23:11:49.111Z,92.48
2022-12-23T23:14:18.012Z,92.50
2022-12-23T23:16:45.810Z,92.58
2022-12-23T23:19:14.560Z,92.57
2022-12-23T23:21:42.555Z,92.54
2022-12-23T23:24:11.485Z,92.58
2022-12-23T23:26:39.142Z,92.54
2022-12-23T23:29:06.981Z,92.62
2022-12-23T23:31:43.659Z,92.67
2022-12-23T23:34:04.605Z,92.63
2022-12-23T23:36:31.872Z,92.75
2022-12-23T23:38:59.437Z,92.62
2022-12-23T23:41:27.238Z,92.49
2022-12-23T23:43:55.190Z,92.39
2022-12-23T23:46:22.963Z,92.41
2022-12-23T23:48:50.683Z,92.41
2022-12-23T23:51:18.849Z,92.49
2022-12-23T23:53:46.249Z,92.47
2022-12-23T23:56:14.202Z,92.44
2022-12-23T23:58:42.309Z,92.41
